Time,TemperatureF,DewpointF,PressureIn,WindDirection,WindDirectionDegrees,WindSpeedMPH,WindSpeedGustMPH,Humidity,HourlyPrecipIn,Conditions,Clouds,dailyrainin,SoftwareType,DateUTC
2014-01-19 00:22:00,44.0,25.0,-100.00,North,-999,-999.0,-999.0,48,-99.99,,,0.00,,2014-01-19 06:22:00,
2014-01-19 01:21:00,45.0,24.0,-100.00,North,-999,-999.0,-999.0,44,0.00,,,0.00,,2014-01-19 07:21:00,
2014-01-19 01:52:00,42.0,24.0,-100.00,North,-999,-999.0,-999.0,50,0.00,,,0.00,,2014-01-19 07:52:00,
2014-01-19 02:22:00,39.0,24.0,-100.00,North,-999,-999.0,-999.0,55,0.00,,,-99.99,,2014-01-19 08:22:00,
2014-01-19 02:32:00,39.0,24.0,-100.00,North,-999,-999.0,-999.0,55,0.00,,,-99.99,,2014-01-19 08:32:00,
2014-01-19 02:52:00,38.0,24.0,-100.00,North,-999,-999.0,-999.0,58,0.00,,,0.00,,2014-01-19 08:52:00,
2014-01-19 03:21:00,36.0,24.0,-100.00,North,-999,-999.0,-999.0,62,0.00,,,0.00,,2014-01-19 09:21:00,
2014-01-19 03:53:00,35.0,24.0,-100.00,North,-999,-999.0,-999.0,64,0.00,,,0.00,,2014-01-19 09:53:00,
2014-01-19 04:23:00,36.0,24.0,-100.00,North,-999,-999.0,-999.0,61,0.00,,,0.00,,2014-01-19 10:23:00,
2014-01-19 04:52:00,34.0,23.0,-100.00,North,-999,-999.0,-999.0,65,0.00,,,0.00,,2014-01-19 10:52:00,
2014-01-19 05:22:00,34.0,23.0,-100.00,North,-999,-999.0,-999.0,65,0.00,,,-99.99,,2014-01-19 11:22:00,
2014-01-19 05:53:00,33.0,23.0,-100.00,North,-999,-999.0,-999.0,64,0.00,,,0.00,,2014-01-19 11:53:00,
2014-01-19 06:22:00,33.0,23.0,-100.00,North,-999,-999.0,-999.0,65,0.00,,,-99.99,,2014-01-19 12:22:00,
2014-01-19 06:52:00,32.0,23.0,-100.00,North,-999,-999.0,-999.0,69,0.00,,,0.00,,2014-01-19 12:52:00,
2014-01-19 07:21:00,29.0,23.0,-100.00,North,-999,-999.0,-999.0,77,0.00,,,0.00,,2014-01-19 13:21:00,
2014-01-19 07:52:00,28.0,22.0,-100.00,North,-999,-999.0,-999.0,77,0.00,,,0.00,,2014-01-19 13:52:00,
2014-01-19 08:21:00,27.0,22.0,-100.00,North,-999,-999.0,-999.0,80,0.00,,,0.00,,2014-01-19 14:21:00,
2014-01-19 08:52:00,29.0,23.0,-100.00,North,-999,-999.0,-999.0,77,0.00,,,-99.99,,2014-01-19 14:52:00,
2014-01-19 10:53:00,50.0,25.0,-100.00,North,-999,-999.0,-999.0,39,0.00,,,0.00,,2014-01-19 16:53:00,
2014-01-19 11:22:00,54.0,24.0,-100.00,North,-999,-999.0,-999.0,31,0.00,,,0.00,,2014-01-19 17:22:00,
2014-01-19 11:53:00,56.0,22.0,-100.00,North,-999,-999.0,-999.0,27,0.00,,,0.00,,2014-01-19 17:53:00,
2014-01-19 12:22:00,58.0,23.0,-100.00,North,-999,-999.0,-999.0,25,0.00,,,0.00,,2014-01-19 18:22:00,
2014-01-19 12:52:00,60.0,24.0,-100.00,North,-999,-999.0,-999.0,25,0.00,,,0.00,,2014-01-19 18:52:00,
2014-01-19 13:21:00,62.0,25.0,-100.00,North,-999,-999.0,-999.0,24,0.00,,,0.00,,2014-01-19 19:21:00,
2014-01-19 13:52:00,64.0,23.0,-100.00,North,-999,-999.0,-999.0,21,0.00,,,0.00,,2014-01-19 19:52:00,
2014-01-19 14:21:00,66.0,22.0,-100.00,North,-999,-999.0,-999.0,19,0.00,,,0.00,,2014-01-19 20:21:00,
2014-01-19 14:52:00,67.0,20.0,-100.00,North,-999,-999.0,-999.0,17,0.00,,,0.00,,2014-01-19 20:52:00,
2014-01-19 15:22:00,68.0,20.0,-100.00,North,-999,-999.0,-999.0,16,0.00,,,0.00,,2014-01-19 21:22:00,
2014-01-19 15:53:00,68.0,19.0,-100.00,North,-999,-999.0,-999.0,15,0.00,,,0.00,,2014-01-19 21:53:00,
2014-01-19 16:22:00,69.0,16.0,-100.00,North,-999,-999.0,-999.0,13,0.00,,,0.00,,2014-01-19 22:22:00,
2014-01-19 16:52:00,69.0,16.0,-100.00,North,-999,-999.0,-999.0,13,0.00,,,0.00,,2014-01-19 22:52:00,
2014-01-19 17:22:00,68.0,15.0,-100.00,North,-999,-999.0,-999.0,13,0.00,,,0.00,,2014-01-19 23:22:00,
2014-01-19 17:52:00,67.0,18.0,-100.00,North,-999,-999.0,-999.0,15,0.00,,,0.00,,2014-01-19 23:52:00,
2014-01-19 18:22:00,64.0,17.0,-100.00,North,-999,-999.0,-999.0,16,0.00,,,0.00,,2014-01-20 00:22:00,
2014-01-19 19:42:00,50.0,20.0,-100.00,North,-999,-999.0,-999.0,30,0.00,,,0.00,,2014-01-20 01:42:00,
2014-01-19 19:52:00,50.0,20.0,-100.00,North,-999,-999.0,-999.0,30,0.00,,,0.00,,2014-01-20 01:52:00,
2014-01-19 20:22:00,48.0,19.0,-100.00,North,-999,-999.0,-999.0,32,0.00,,,0.00,,2014-01-20 02:22:00,
2014-01-19 20:52:00,47.0,21.0,-100.00,North,-999,-999.0,-999.0,36,0.00,,,-99.99,,2014-01-20 02:52:00,
2014-01-19 21:21:00,46.0,21.0,-100.00,North,-999,-999.0,-999.0,36,0.00,,,0.00,,2014-01-20 03:21:00,
2014-01-19 21:53:00,45.0,22.0,-100.00,North,-999,-999.0,-999.0,41,0.00,,,0.00,,2014-01-20 03:53:00,
2014-01-19 22:23:00,44.0,23.0,-100.00,North,-999,-999.0,-999.0,43,0.00,,,0.00,,2014-01-20 04:23:00,
2014-01-19 22:53:00,46.0,23.0,-100.00,North,-999,-999.0,-999.0,41,0.00,,,0.00,,2014-01-20 04:53:00,
2014-01-19 23:22:00,44.0,24.0,-100.00,North,-999,-999.0,-999.0,45,0.00,,,-99.99,,2014-01-20 05:22:00,
2014-01-19 23:52:00,41.0,25.0,-100.00,North,-999,-999.0,-999.0,53,0.00,,,0.00,,2014-01-20 05:52:00,